Time;durP1;ratioP1;P1;durP2;ratioP2;P2;SDS_P1;SDS_P2;PMS_P1;PMS_P2;Temp;Humidity;BMP_temperature;BMP_pressure;BME280_temperature;BME280_humidity;BME280_pressure;Samples;Min_cycle;Max_cycle;Signal;HPM_P1;HPM_P2
2023/08/05 00:02:18;;;;;;;13.05;6.40;;;13.50;99.90;;;;;;4850672;29;20058;-59
2023/08/05 00:04:46;;;;;;;14.82;6.18;;;13.50;99.90;;;;;;4839777;29;20052;-60
2023/08/05 00:07:13;;;;;;;13.93;5.78;;;13.50;99.90;;;;;;4855401;29;20041;-60
2023/08/05 00:09:41;;;;;;;17.33;6.50;;;13.50;99.90;;;;;;4854760;29;20057;-59
2023/08/05 00:12:09;;;;;;;13.25;6.05;;;13.50;99.90;;;;;;4854423;29;20057;-60
2023/08/05 00:14:37;;;;;;;16.30;7.20;;;13.50;99.90;;;;;;4852305;29;20056;-60
2023/08/05 00:17:05;;;;;;;12.88;6.60;;;13.40;99.90;;;;;;4851880;29;20064;-59
2023/08/05 00:19:33;;;;;;;16.25;6.07;;;13.40;99.90;;;;;;4855220;29;20041;-59
2023/08/05 00:22:00;;;;;;;17.35;6.72;;;13.40;99.90;;;;;;4858113;29;20397;-59
2023/08/05 00:24:28;;;;;;;17.60;7.43;;;13.40;99.90;;;;;;4855120;29;20048;-59
2023/08/05 00:26:56;;;;;;;20.23;8.38;;;13.40;99.90;;;;;;4841779;29;20049;-59
2023/08/05 00:29:23;;;;;;;21.02;8.15;;;13.40;99.90;;;;;;4853431;29;20053;-59
2023/08/05 00:31:51;;;;;;;16.80;8.20;;;13.40;99.90;;;;;;4836703;29;20046;-59
2023/08/05 00:34:18;;;;;;;17.73;8.23;;;13.40;99.90;;;;;;4834833;29;20058;-59
2023/08/05 00:36:46;;;;;;;21.25;8.75;;;13.40;99.90;;;;;;4856801;29;20057;-59
2023/08/05 00:39:15;;;;;;;17.00;8.20;;;13.40;99.90;;;;;;4853563;29;20057;-59
2023/08/05 00:41:42;;;;;;;22.73;8.50;;;13.40;99.90;;;;;;4841206;29;20053;-59
2023/08/05 00:44:10;;;;;;;17.85;7.38;;;13.40;99.90;;;;;;4848785;29;20052;-59
2023/08/05 00:46:38;;;;;;;18.13;7.43;;;13.40;99.90;;;;;;4850711;29;20061;-59
2023/08/05 00:49:06;;;;;;;17.33;7.65;;;13.40;99.90;;;;;;4851776;29;20588;-59
2023/08/05 00:51:34;;;;;;;15.80;7.63;;;13.40;99.90;;;;;;4854170;29;20424;-59
2023/08/05 00:54:03;;;;;;;14.30;8.02;;;13.40;99.90;;;;;;4855034;29;20045;-59
2023/08/05 00:56:31;;;;;;;18.90;7.18;;;13.40;99.90;;;;;;4825629;29;20053;-59
2023/08/05 00:58:59;;;;;;;16.20;6.50;;;13.40;99.90;;;;;;4839817;29;20052;-59
2023/08/05 01:01:27;;;;;;;12.65;6.70;;;13.40;99.90;;;;;;4817722;29;20056;-60
2023/08/05 01:03:57;;;;;;;12.52;6.18;;;13.30;99.90;;;;;;4845136;29;20079;-60
2023/08/05 01:06:25;;;;;;;20.55;6.55;;;13.30;99.90;;;;;;4820807;29;20061;-60
2023/08/05 01:08:55;;;;;;;16.05;6.68;;;13.30;99.90;;;;;;4812514;29;20046;-59
2023/08/05 01:11:23;;;;;;;;;;;13.30;99.90;;;;;;4853584;29;20120;-60
2023/08/05 01:13:51;;;;;;;16.60;6.45;;;13.30;99.90;;;;;;4822751;29;20010;-59
2023/08/05 01:16:18;;;;;;;12.88;6.03;;;13.20;99.90;;;;;;4823493;29;20049;-60
2023/08/05 01:18:47;;;;;;;13.95;6.25;;;13.20;99.90;;;;;;4847671;29;20053;-59
2023/08/05 01:21:22;;;;;;;16.65;6.50;;;13.20;99.90;;;;;;4835999;29;20052;-60
2023/08/05 01:24:02;;;;;;;19.38;5.80;;;13.10;99.90;;;;;;4853967;29;20053;-59
2023/08/05 01:26:32;;;;;;;13.13;6.28;;;13.10;99.90;;;;;;4848397;29;20056;-59
2023/08/05 01:29:04;;;;;;;18.75;6.32;;;13.10;99.90;;;;;;4839319;29;20494;-59
2023/08/05 01:31:32;;;;;;;13.27;6.10;;;13.10;99.90;;;;;;4812252;29;20039;-59
2023/08/05 01:34:01;;;;;;;20.15;6.95;;;13.10;99.90;;;;;;4841528;29;20041;-60
2023/08/05 01:36:30;;;;;;;11.85;6.38;;;13.10;99.90;;;;;;4843322;29;20037;-59
2023/08/05 01:38:58;;;;;;;15.52;6.90;;;13.10;99.90;;;;;;4839403;29;20057;-59
2023/08/05 01:41:26;;;;;;;13.93;6.20;;;13.10;99.90;;;;;;4860065;29;20042;-61
2023/08/05 01:43:53;;;;;;;14.60;6.95;;;13.10;99.90;;;;;;4841880;29;20052;-60
2023/08/05 01:46:21;;;;;;;16.15;6.28;;;13.10;99.90;;;;;;4850410;29;20061;-60
2023/08/05 01:48:49;;;;;;;24.50;7.35;;;13.10;99.90;;;;;;4855943;29;20049;-61
2023/08/05 01:51:17;;;;;;;16.98;6.93;;;13.10;99.90;;;;;;4859177;29;20045;-61
2023/08/05 01:53:44;;;;;;;17.13;6.72;;;13.10;99.90;;;;;;4856850;29;20060;-61
2023/08/05 01:56:12;;;;;;;17.95;6.68;;;13.10;99.90;;;;;;4859639;29;20505;-59
2023/08/05 01:58:40;;;;;;;13.73;6.03;;;13.10;99.90;;;;;;4834984;29;20050;-60
2023/08/05 02:01:07;;;;;;;18.35;6.97;;;13.10;99.90;;;;;;4857622;29;20413;-59
2023/08/05 02:03:35;;;;;;;19.38;6.88;;;13.10;99.90;;;;;;4853625;29;20049;-60
2023/08/05 02:06:03;;;;;;;16.90;6.22;;;13.20;99.90;;;;;;4854744;29;20046;-59
2023/08/05 02:08:31;;;;;;;15.93;6.68;;;13.20;99.90;;;;;;4855812;29;20478;-59
2023/08/05 02:10:58;;;;;;;14.63;7.28;;;13.10;99.90;;;;;;4854437;29;20061;-59
2023/08/05 02:13:26;;;;;;;14.02;5.60;;;13.20;99.90;;;;;;4838172;29;20049;-59
2023/08/05 02:15:54;;;;;;;20.90;8.05;;;13.10;99.90;;;;;;4854846;29;20054;-59
2023/08/05 02:18:21;;;;;;;16.30;7.30;;;13.10;99.90;;;;;;4840392;29;20041;-59
2023/08/05 02:20:49;;;;;;;17.08;7.65;;;13.10;99.90;;;;;;4858996;29;20049;-60
2023/08/05 02:23:17;;;;;;;17.60;6.82;;;13.10;99.90;;;;;;4856012;29;20054;-59
2023/08/05 02:25:44;;;;;;;14.57;7.25;;;13.10;99.90;;;;;;4859199;29;20060;-59
2023/08/05 02:28:12;;;;;;;16.25;6.75;;;13.10;99.90;;;;;;4849340;29;20049;-60
2023/08/05 02:30:40;;;;;;;17.25;7.25;;;13.10;99.90;;;;;;4857606;29;20084;-59
2023/08/05 02:33:08;;;;;;;19.23;7.07;;;13.10;99.90;;;;;;4839630;29;20050;-60
2023/08/05 02:35:35;;;;;;;17.42;7.07;;;13.10;99.90;;;;;;4856173;29;20072;-59
2023/08/05 02:38:03;;;;;;;16.00;6.80;;;13.10;99.90;;;;;;4851892;29;20057;-59
2023/08/05 02:40:34;;;;;;;15.60;7.55;;;13.10;99.90;;;;;;4842522;29;20050;-59
2023/08/05 02:43:01;;;;;;;15.25;8.27;;;13.10;99.90;;;;;;4856527;29;20049;-59
2023/08/05 02:45:29;;;;;;;18.15;8.10;;;13.10;99.90;;;;;;4859037;29;20050;-59
2023/08/05 02:47:57;;;;;;;19.25;7.03;;;13.10;99.90;;;;;;4842647;29;20386;-59
2023/08/05 02:50:25;;;;;;;20.20;8.25;;;13.00;99.90;;;;;;4856506;29;20045;-59
2023/08/05 02:52:53;;;;;;;19.40;8.43;;;;;;;;;;4854428;29;20046;-58
2023/08/05 02:55:21;;;;;;;17.00;7.93;;;13.10;99.90;;;;;;4858928;29;20056;-60
2023/08/05 02:57:49;;;;;;;17.15;7.43;;;13.00;99.90;;;;;;4854444;29;20060;-60
2023/08/05 03:00:17;;;;;;;20.98;9.10;;;13.10;99.90;;;;;;4842488;29;20048;-59
2023/08/05 03:02:45;;;;;;;18.45;8.07;;;13.10;99.90;;;;;;4842371;29;20049;-59
2023/08/05 03:05:13;;;;;;;20.30;8.35;;;13.00;99.90;;;;;;4834896;29;20049;-59
2023/08/05 03:07:41;;;;;;;28.60;8.85;;;13.00;99.90;;;;;;4823083;29;20391;-58
2023/08/05 03:10:09;;;;;;;21.77;9.15;;;13.00;99.90;;;;;;4851294;29;20042;-59
2023/08/05 03:12:37;;;;;;;19.52;8.82;;;13.00;99.90;;;;;;4841997;29;20041;-59
2023/08/05 03:15:05;;;;;;;22.58;8.43;;;13.00;99.90;;;;;;4842465;29;20053;-58
2023/08/05 03:17:34;;;;;;;20.98;8.88;;;13.00;99.90;;;;;;4841754;29;20053;-59
2023/08/05 03:20:04;;;;;;;17.55;8.50;;;12.90;99.90;;;;;;4837793;29;20062;-59
2023/08/05 03:22:35;;;;;;;24.95;8.70;;;12.90;99.90;;;;;;4832584;29;20550;-59
2023/08/05 03:25:03;;;;;;;20.42;8.77;;;12.90;99.90;;;;;;4840044;29;20049;-59
2023/08/05 03:27:31;;;;;;;25.90;8.30;;;12.80;99.90;;;;;;4842114;29;20041;-59
2023/08/05 03:30:02;;;;;;;24.52;8.32;;;12.80;99.90;;;;;;4842087;29;20056;-59
2023/08/05 03:32:31;;;;;;;20.60;9.30;;;12.80;99.90;;;;;;4842417;29;20045;-59
2023/08/05 03:34:59;;;;;;;20.35;8.60;;;12.70;99.90;;;;;;4811094;29;20049;-60
2023/08/05 03:37:27;;;;;;;26.27;8.50;;;12.70;99.90;;;;;;4834685;29;20060;-61
2023/08/05 03:39:54;;;;;;;18.85;8.15;;;12.70;99.90;;;;;;4838632;29;20053;-59
2023/08/05 03:42:22;;;;;;;22.45;9.52;;;12.70;99.90;;;;;;4834754;29;20056;-61
2023/08/05 03:44:50;;;;;;;22.25;9.50;;;12.70;99.90;;;;;;4829816;29;20057;-59
2023/08/05 03:47:20;;;;;;;20.90;8.90;;;12.60;99.90;;;;;;4853008;29;20046;-58
2023/08/05 03:49:48;;;;;;;22.52;9.13;;;12.60;99.90;;;;;;4833745;29;20502;-59
2023/08/05 03:52:15;;;;;;;29.63;8.43;;;12.60;99.90;;;;;;4851025;29;20046;-59
2023/08/05 03:54:44;;;;;;;25.92;8.55;;;12.60;99.90;;;;;;4849389;29;20054;-59
2023/08/05 03:57:11;;;;;;;21.10;8.85;;;12.50;99.90;;;;;;4853871;29;20426;-59
2023/08/05 03:59:41;;;;;;;21.88;9.38;;;12.50;99.90;;;;;;4835535;29;20390;-58
2023/08/05 04:02:09;;;;;;;27.13;9.05;;;12.50;99.90;;;;;;4857904;29;20494;-59
2023/08/05 04:04:37;;;;;;;20.70;8.18;;;12.50;99.90;;;;;;4848196;29;20434;-58
2023/08/05 04:07:05;;;;;;;22.75;9.23;;;12.40;99.90;;;;;;4827739;29;20053;-58
2023/08/05 04:09:35;;;;;;;25.33;9.68;;;12.40;99.90;;;;;;4855929;29;20402;-58
2023/08/05 04:12:09;;;;;;;21.08;9.68;;;12.40;99.90;;;;;;4834017;29;20050;-58
2023/08/05 04:14:38;;;;;;;20.95;9.30;;;12.40;99.90;;;;;;4822989;29;20041;-58
2023/08/05 04:17:08;;;;;;;24.83;9.95;;;12.40;99.90;;;;;;4843751;29;20045;-57
2023/08/05 04:19:37;;;;;;;29.98;10.50;;;12.40;99.90;;;;;;4847651;29;20042;-57
2023/08/05 04:22:05;;;;;;;25.67;10.23;;;12.40;99.90;;;;;;4849965;29;20041;-58
2023/08/05 04:24:33;;;;;;;23.15;10.38;;;12.40;99.90;;;;;;4832792;29;20038;-58
2023/08/05 04:27:03;;;;;;;31.73;10.25;;;12.40;99.90;;;;;;4833255;29;20050;-58
2023/08/05 04:29:30;;;;;;;27.33;11.55;;;12.40;99.90;;;;;;4857454;29;20575;-58
2023/08/05 04:31:58;;;;;;;29.45;10.18;;;12.30;99.90;;;;;;4853600;29;20045;-58
2023/08/05 04:34:26;;;;;;;20.95;9.90;;;12.30;99.90;;;;;;4843390;29;20414;-58
2023/08/05 04:36:53;;;;;;;21.13;9.38;;;12.30;99.90;;;;;;4851205;29;20050;-58
2023/08/05 04:39:21;;;;;;;23.27;10.13;;;12.30;99.90;;;;;;4857232;29;20551;-58
2023/08/05 04:41:49;;;;;;;25.65;11.38;;;12.30;99.90;;;;;;4856017;29;20049;-58
2023/08/05 04:44:18;;;;;;;22.20;10.38;;;12.30;99.90;;;;;;4825493;29;20049;-58
2023/08/05 04:46:45;;;;;;;22.95;10.60;;;12.30;99.90;;;;;;4840566;29;20514;-58
2023/08/05 04:49:13;;;;;;;25.88;10.38;;;12.30;99.90;;;;;;4832178;29;20050;-58
2023/08/05 04:51:41;;;;;;;28.02;10.45;;;12.30;99.90;;;;;;4836413;29;20053;-58
2023/08/05 04:54:09;;;;;;;25.23;10.43;;;12.30;99.90;;;;;;4848894;29;20068;-58
2023/08/05 04:56:36;;;;;;;28.02;10.48;;;12.20;99.90;;;;;;4836689;29;20050;-57
2023/08/05 04:59:04;;;;;;;28.73;10.55;;;12.30;99.90;;;;;;4850050;29;20045;-58
2023/08/05 05:01:32;;;;;;;24.48;10.77;;;12.30;99.90;;;;;;4846128;29;20057;-58
2023/08/05 05:04:00;;;;;;;25.92;10.52;;;12.30;99.90;;;;;;4832647;29;20425;-58
2023/08/05 05:06:28;;;;;;;25.13;10.18;;;12.30;99.90;;;;;;4844770;29;20050;-58
2023/08/05 05:08:58;;;;;;;27.08;10.45;;;12.30;99.90;;;;;;4834889;29;20045;-58
2023/08/05 05:11:26;;;;;;;24.38;9.85;;;12.20;99.90;;;;;;4848221;29;20542;-58
2023/08/05 05:13:56;;;;;;;25.17;9.57;;;12.20;99.90;;;;;;4856974;29;20052;-58
2023/08/05 05:16:24;;;;;;;24.55;9.25;;;;;;;;;;4852942;29;20504;-57
2023/08/05 05:18:52;;;;;;;22.17;8.90;;;12.10;99.90;;;;;;4831770;29;20065;-58
2023/08/05 05:21:20;;;;;;;22.80;9.48;;;;;;;;;;4825822;29;20241;-57
2023/08/05 05:23:48;;;;;;;21.08;7.90;;;12.10;99.90;;;;;;4850031;29;20049;-58
2023/08/05 05:26:16;;;;;;;22.92;8.73;;;12.10;99.90;;;;;;4828567;29;20457;-58
2023/08/05 05:28:43;;;;;;;28.83;10.77;;;12.00;99.90;;;;;;4851941;29;20048;-58
2023/08/05 05:31:11;;;;;;;32.13;9.93;;;12.00;99.90;;;;;;4836993;29;20057;-57
2023/08/05 05:33:39;;;;;;;22.13;9.23;;;12.00;99.90;;;;;;4825383;29;20058;-57
2023/08/05 05:36:07;;;;;;;22.67;8.70;;;12.00;99.90;;;;;;4836893;29;20064;-57
2023/08/05 05:38:34;;;;;;;20.95;8.02;;;12.00;99.90;;;;;;4842927;29;20085;-58
2023/08/05 05:41:02;;;;;;;18.75;8.52;;;12.00;99.90;;;;;;4849253;29;20045;-58
2023/08/05 05:43:30;;;;;;;22.25;9.45;;;12.00;99.90;;;;;;4829052;29;20045;-58
2023/08/05 05:45:57;;;;;;;30.98;9.65;;;12.00;99.90;;;;;;4848109;29;20054;-59
2023/08/05 05:48:25;;;;;;;17.17;8.43;;;12.00;99.90;;;;;;4851897;29;20075;-58
2023/08/05 05:50:53;;;;;;;22.15;8.23;;;12.00;99.90;;;;;;4850031;29;20060;-57
2023/08/05 05:53:21;;;;;;;24.67;7.40;;;11.90;99.90;;;;;;4847881;29;20045;-57
2023/08/05 05:55:53;;;;;;;16.40;7.68;;;;;;;;;;4842227;29;20132;-57
2023/08/05 05:58:21;;;;;;;20.80;9.23;;;11.90;99.90;;;;;;4848014;29;20406;-57
2023/08/05 06:00:54;;;;;;;19.02;7.97;;;11.90;99.90;;;;;;4856403;29;20527;-57
2023/08/05 06:03:22;;;;;;;20.05;7.50;;;11.90;99.90;;;;;;4852409;29;20045;-58
2023/08/05 06:05:51;;;;;;;20.38;7.55;;;11.90;99.90;;;;;;4825970;29;20058;-58
2023/08/05 06:08:18;;;;;;;18.55;6.88;;;11.90;99.90;;;;;;4843841;29;20057;-58
2023/08/05 06:10:46;;;;;;;18.83;7.65;;;11.90;99.90;;;;;;4855629;29;20425;-58
2023/08/05 06:13:14;;;;;;;15.95;6.78;;;11.90;99.90;;;;;;4847114;29;20402;-57
2023/08/05 06:15:42;;;;;;;18.38;6.80;;;11.80;99.90;;;;;;4820409;29;20541;-58
2023/08/05 06:18:11;;;;;;;20.77;8.15;;;11.90;99.90;;;;;;4854949;29;20493;-58
2023/08/05 06:20:38;;;;;;;19.83;7.78;;;11.90;99.90;;;;;;4849401;29;20061;-59
2023/08/05 06:23:07;;;;;;;19.23;7.63;;;11.90;99.90;;;;;;4832964;29;20042;-59
2023/08/05 06:25:34;;;;;;;16.45;8.18;;;11.90;99.90;;;;;;4855642;29;20045;-58
2023/08/05 06:28:02;;;;;;;20.27;7.57;;;11.90;99.90;;;;;;4850967;29;20056;-57
2023/08/05 06:30:30;;;;;;;15.30;6.75;;;11.90;99.90;;;;;;4855681;29;20084;-58
2023/08/05 06:32:58;;;;;;;17.67;6.38;;;11.80;99.90;;;;;;4841856;29;20053;-58
2023/08/05 06:35:26;;;;;;;19.92;6.40;;;11.80;99.90;;;;;;4840173;29;20060;-58
2023/08/05 06:37:54;;;;;;;16.23;6.57;;;11.80;99.90;;;;;;4854794;29;20044;-57
2023/08/05 06:40:21;;;;;;;16.48;6.43;;;11.70;99.90;;;;;;4840430;29;20045;-58
2023/08/05 06:42:50;;;;;;;22.80;8.15;;;11.70;99.90;;;;;;4839998;29;20054;-57
2023/08/05 06:45:18;;;;;;;19.38;6.57;;;11.60;99.90;;;;;;4834360;29;20049;-57
2023/08/05 06:47:46;;;;;;;18.80;6.00;;;11.60;99.90;;;;;;4849381;29;20046;-57
2023/08/05 06:50:14;;;;;;;16.27;6.72;;;11.50;99.90;;;;;;4848512;29;20374;-57
2023/08/05 06:52:41;;;;;;;27.52;6.22;;;11.50;99.90;;;;;;4853349;29;20061;-57
2023/08/05 06:55:09;;;;;;;20.17;7.32;;;11.40;99.90;;;;;;4853355;29;20435;-57
2023/08/05 06:57:37;;;;;;;16.58;6.57;;;11.40;99.90;;;;;;4828215;29;20080;-57
2023/08/05 07:00:05;;;;;;;14.70;6.45;;;11.40;99.90;;;;;;4855339;29;20041;-57
2023/08/05 07:02:33;;;;;;;19.05;6.88;;;11.30;99.90;;;;;;4845514;29;20076;-56
2023/08/05 07:05:01;;;;;;;16.02;6.25;;;11.30;99.90;;;;;;4841089;29;20053;-57
2023/08/05 07:07:31;;;;;;;14.48;6.10;;;11.30;99.90;;;;;;4848384;29;20053;-56
2023/08/05 07:10:03;;;;;;;16.23;5.82;;;11.30;99.90;;;;;;4832065;29;20053;-56
2023/08/05 07:12:30;;;;;;;15.18;5.22;;;11.20;99.90;;;;;;4838588;29;20045;-56
2023/08/05 07:14:58;;;;;;;13.98;5.63;;;11.20;99.90;;;;;;4852809;29;20042;-56
2023/08/05 07:17:26;;;;;;;16.38;5.47;;;11.20;99.90;;;;;;4852681;29;20053;-55
2023/08/05 07:19:54;;;;;;;12.18;5.72;;;11.20;99.90;;;;;;4844512;29;20058;-56
2023/08/05 07:22:22;;;;;;;14.45;5.30;;;11.20;99.90;;;;;;4848669;29;20041;-55
2023/08/05 07:24:52;;;;;;;15.55;5.13;;;11.10;99.90;;;;;;4846315;29;20053;-56
2023/08/05 07:27:20;;;;;;;16.00;5.18;;;11.10;99.90;;;;;;4835216;29;20042;-55
2023/08/05 07:29:48;;;;;;;12.75;4.65;;;11.10;99.90;;;;;;4838679;29;20061;-55
2023/08/05 07:32:16;;;;;;;12.23;4.70;;;11.10;99.90;;;;;;4847575;29;20046;-56
2023/08/05 07:34:44;;;;;;;15.68;5.03;;;11.00;99.90;;;;;;4855369;29;20057;-55
2023/08/05 07:37:14;;;;;;;15.48;4.70;;;11.00;99.90;;;;;;4846069;29;20065;-55
2023/08/05 07:39:46;;;;;;;16.27;6.07;;;11.00;99.90;;;;;;4832543;29;20049;-55
2023/08/05 07:42:15;;;;;;;10.93;4.90;;;11.00;99.90;;;;;;4851390;29;20050;-56
2023/08/05 07:44:44;;;;;;;9.27;5.03;;;11.00;99.90;;;;;;4852590;29;20486;-55
2023/08/05 07:47:12;;;;;;;12.88;4.57;;;11.00;99.90;;;;;;4855270;29;20049;-56
2023/08/05 07:49:41;;;;;;;16.92;5.10;;;11.00;99.90;;;;;;4831677;29;20056;-56
2023/08/05 07:52:09;;;;;;;14.40;5.63;;;11.00;99.90;;;;;;4856828;29;20049;-57
2023/08/05 07:54:37;;;;;;;14.93;5.50;;;11.10;99.90;;;;;;4853509;29;20066;-56
2023/08/05 07:57:05;;;;;;;11.70;5.15;;;11.10;99.90;;;;;;4821337;29;20521;-56
2023/08/05 07:59:34;;;;;;;10.15;4.97;;;11.10;99.90;;;;;;4855430;29;20049;-56
2023/08/05 08:02:01;;;;;;;8.35;4.80;;;11.10;99.90;;;;;;4840761;29;20057;-56
2023/08/05 08:04:32;;;;;;;15.88;5.00;;;11.10;99.90;;;;;;4854929;29;20060;-55
2023/08/05 08:07:00;;;;;;;17.23;6.53;;;11.10;99.90;;;;;;4838497;29;20060;-55
2023/08/05 08:09:28;;;;;;;12.63;5.35;;;11.10;99.90;;;;;;4837710;29;20037;-56
2023/08/05 08:11:56;;;;;;;11.07;5.20;;;11.10;99.90;;;;;;4834109;29;20050;-55
2023/08/05 08:14:23;;;;;;;14.88;5.38;;;11.10;99.90;;;;;;4856955;29;20053;-55
2023/08/05 08:16:51;;;;;;;15.93;5.95;;;11.10;99.90;;;;;;4858111;29;20494;-55
2023/08/05 08:19:19;;;;;;;9.98;5.38;;;11.10;99.90;;;;;;4856748;29;20046;-56
2023/08/05 08:21:46;;;;;;;13.98;5.85;;;11.10;99.90;;;;;;4857825;29;20041;-56
2023/08/05 08:24:14;;;;;;;13.10;5.45;;;11.20;99.90;;;;;;4857874;29;20060;-55
2023/08/05 08:26:41;;;;;;;14.07;6.40;;;11.10;99.90;;;;;;4852866;29;20053;-56
2023/08/05 08:29:09;;;;;;;13.75;4.97;;;11.20;99.90;;;;;;4855146;29;20037;-55
2023/08/05 08:31:37;;;;;;;9.25;4.70;;;11.20;99.90;;;;;;4853223;29;20053;-56
2023/08/05 08:34:05;;;;;;;10.98;5.00;;;11.20;99.90;;;;;;4850566;29;20064;-55
2023/08/05 08:36:33;;;;;;;12.32;5.43;;;11.20;99.90;;;;;;4855331;29;20053;-55
2023/08/05 08:39:01;;;;;;;12.77;5.22;;;;;;;;;;4838342;29;20041;-55
2023/08/05 08:41:36;;;;;;;8.27;4.80;;;11.20;99.90;;;;;;4850661;29;20249;-55
2023/08/05 08:44:08;;;;;;;11.00;4.70;;;11.30;99.90;;;;;;4852278;29;20053;-55
2023/08/05 08:46:37;;;;;;;10.63;4.85;;;11.20;99.90;;;;;;4837736;29;20517;-55
2023/08/05 08:49:06;;;;;;;11.73;6.13;;;11.20;99.90;;;;;;4855716;29;20057;-55
2023/08/05 08:51:36;;;;;;;10.20;5.22;;;11.20;99.90;;;;;;4857760;29;20042;-55
2023/08/05 08:54:04;;;;;;;14.00;4.53;;;11.30;99.90;;;;;;4851605;29;20050;-55
2023/08/05 08:56:36;;;;;;;12.27;5.70;;;11.30;99.90;;;;;;4852262;29;20393;-55
2023/08/05 08:59:04;;;;;;;10.38;5.50;;;11.30;99.90;;;;;;4835049;29;20394;-55
2023/08/05 09:01:32;;;;;;;10.45;5.10;;;11.30;99.90;;;;;;4840874;29;20251;-57
2023/08/05 09:04:02;;;;;;;11.40;5.93;;;11.40;99.90;;;;;;4854761;29;20056;-55
2023/08/05 09:06:30;;;;;;;12.13;4.78;;;11.40;99.90;;;;;;4857166;29;20057;-55
2023/08/05 09:08:57;;;;;;;9.60;5.10;;;11.40;99.90;;;;;;4837741;29;20048;-55
2023/08/05 09:11:25;;;;;;;11.02;4.72;;;11.40;99.90;;;;;;4836615;29;20083;-55
2023/08/05 09:13:53;;;;;;;9.98;5.05;;;12.10;99.90;;;;;;4836244;29;20049;-53
2023/08/05 09:16:21;;;;;;;11.38;4.47;;;11.50;99.90;;;;;;4857419;29;20045;-53
2023/08/05 09:18:55;;;;;;;10.82;4.57;;;11.60;99.90;;;;;;4855516;29;20513;-54
2023/08/05 09:21:28;;;;;;;9.20;4.93;;;11.50;99.90;;;;;;4821362;29;20176;-54
2023/08/05 09:23:57;;;;;;;13.00;5.38;;;11.60;99.90;;;;;;4845953;29;20061;-54
2023/08/05 09:26:29;;;;;;;14.73;5.50;;;11.50;99.90;;;;;;4839008;29;20050;-53
2023/08/05 09:28:58;;;;;;;11.15;5.57;;;11.60;99.90;;;;;;4837112;29;20505;-53
2023/08/05 09:31:26;;;;;;;10.40;4.50;;;11.60;99.90;;;;;;4854536;29;20049;-55
2023/08/05 09:33:54;;;;;;;11.20;5.65;;;;;;;;;;4834082;29;20046;-55
2023/08/05 09:36:23;;;;;;;9.60;4.80;;;11.50;99.90;;;;;;4838340;29;20049;-54
2023/08/05 09:39:05;;;;;;;8.88;4.57;;;11.50;99.90;;;;;;4836948;29;20050;-54
2023/08/05 09:41:35;;;;;;;9.10;5.00;;;11.40;99.90;;;;;;4827077;29;20045;-55
2023/08/05 09:44:05;;;;;;;9.65;4.72;;;11.40;99.90;;;;;;4834482;29;20049;-55
2023/08/05 09:46:43;;;;;;;9.35;4.90;;;11.40;99.90;;;;;;4840117;29;20065;-55
2023/08/05 09:49:17;;;;;;;9.48;4.55;;;11.40;99.90;;;;;;4854716;29;20050;-55
2023/08/05 09:51:46;;;;;;;7.45;4.45;;;11.40;99.90;;;;;;4856463;29;20056;-55
2023/08/05 09:54:23;;;;;;;7.78;3.88;;;11.30;99.90;;;;;;4832641;29;20418;-55
2023/08/05 09:56:51;;;;;;;8.15;3.97;;;11.30;99.90;;;;;;4850134;29;20459;-55
2023/08/05 09:59:20;;;;;;;8.93;4.50;;;11.30;99.90;;;;;;4853115;29;20060;-55
2023/08/05 10:01:48;;;;;;;8.80;4.30;;;11.30;99.90;;;;;;4856608;29;20049;-56
2023/08/05 10:04:17;;;;;;;11.77;3.95;;;11.30;99.90;;;;;;4853613;29;20045;-55
2023/08/05 10:06:46;;;;;;;8.20;3.83;;;11.30;99.90;;;;;;4840500;29;20197;-55
2023/08/05 10:09:14;;;;;;;9.60;4.90;;;11.30;99.90;;;;;;4844861;29;20045;-55
2023/08/05 10:11:43;;;;;;;9.18;4.45;;;11.30;99.90;;;;;;4833835;29;20060;-55
2023/08/05 10:14:13;;;;;;;7.15;4.10;;;11.40;99.90;;;;;;4852493;29;20042;-55
2023/08/05 10:16:41;;;;;;;7.40;3.80;;;11.40;99.90;;;;;;4856506;29;20042;-55
2023/08/05 10:19:09;;;;;;;10.20;4.35;;;11.50;99.90;;;;;;4852860;29;20050;-55
2023/08/05 10:21:42;;;;;;;5.93;3.42;;;11.60;99.90;;;;;;4855959;29;20084;-55
2023/08/05 10:24:10;;;;;;;7.20;3.42;;;11.70;99.90;;;;;;4851268;29;20057;-55
2023/08/05 10:26:46;;;;;;;7.63;3.55;;;11.80;99.90;;;;;;4853388;29;20053;-56
2023/08/05 10:29:30;;;;;;;11.60;4.57;;;11.80;99.90;;;;;;4849232;29;20364;-55
2023/08/05 10:32:09;;;;;;;7.93;3.63;;;11.90;99.90;;;;;;4855234;29;20065;-55
2023/08/05 10:34:37;;;;;;;6.95;4.20;;;12.00;99.90;;;;;;4853174;29;20058;-55
2023/08/05 10:37:05;;;;;;;11.45;4.00;;;12.10;99.90;;;;;;4856060;29;20046;-55
2023/08/05 10:39:39;;;;;;;7.22;3.13;;;12.20;99.90;;;;;;4849542;29;20054;-55
2023/08/05 10:42:35;;;;;;;6.30;3.42;;;12.40;99.90;;;;;;4830851;29;20076;-55
2023/08/05 10:45:04;;;;;;;7.30;3.22;;;12.50;99.90;;;;;;4851907;29;20057;-56
2023/08/05 10:47:32;;;;;;;5.53;2.42;;;12.50;99.90;;;;;;4835998;29;20478;-55
2023/08/05 10:50:00;;;;;;;5.15;2.60;;;12.50;99.90;;;;;;4855573;29;20516;-56
2023/08/05 10:52:35;;;;;;;5.18;2.92;;;12.60;99.90;;;;;;4835573;29;20054;-55
2023/08/05 10:55:08;;;;;;;4.78;2.50;;;12.60;99.90;;;;;;4848393;29;20645;-55
2023/08/05 10:57:38;;;;;;;6.18;3.17;;;12.70;99.90;;;;;;4840875;29;20045;-55
2023/08/05 11:00:07;;;;;;;5.65;3.05;;;12.80;99.90;;;;;;4855526;29;20063;-55
2023/08/05 11:02:37;;;;;;;6.13;3.08;;;12.90;99.90;;;;;;4824193;29;20049;-55
2023/08/05 11:05:10;;;;;;;4.72;2.80;;;12.90;99.90;;;;;;4855202;29;20045;-55
2023/08/05 11:07:38;;;;;;;5.15;2.78;;;13.00;99.90;;;;;;4852156;29;20517;-55
2023/08/05 11:10:08;;;;;;;4.13;2.45;;;13.10;99.90;;;;;;4855322;29;20041;-55
2023/08/05 11:12:39;;;;;;;6.90;3.08;;;13.10;99.90;;;;;;4841909;29;20052;-55
2023/08/05 11:15:09;;;;;;;4.95;2.40;;;13.20;99.90;;;;;;4821527;29;20064;-56
2023/08/05 11:17:53;;;;;;;4.40;2.45;;;13.30;99.90;;;;;;4855383;29;20065;-55
2023/08/05 11:20:30;;;;;;;3.70;2.17;;;13.30;99.90;;;;;;4845659;29;20049;-55
2023/08/05 11:23:00;;;;;;;4.07;2.00;;;13.40;99.90;;;;;;4835925;29;20056;-56
2023/08/05 11:25:28;;;;;;;2.90;1.88;;;13.50;99.90;;;;;;4857873;29;20065;-55
2023/08/05 11:27:57;;;;;;;4.10;1.60;;;13.50;99.90;;;;;;4854788;29;20057;-56
2023/08/05 11:30:25;;;;;;;4.25;2.00;;;13.60;99.90;;;;;;4842782;29;20421;-55
2023/08/05 11:32:55;;;;;;;3.03;2.10;;;13.60;99.90;;;;;;4839704;29;20037;-55
2023/08/05 11:35:25;;;;;;;2.80;1.50;;;10.60;99.90;;;;;;4852318;29;20395;-55
2023/08/05 11:37:53;;;;;;;3.50;2.00;;;13.50;99.90;;;;;;4855411;29;20050;-55
2023/08/05 11:40:22;;;;;;;3.38;1.90;;;13.50;99.90;;;;;;4858207;29;20053;-55
2023/08/05 11:42:50;;;;;;;3.92;1.90;;;13.60;99.90;;;;;;4857177;29;20054;-57
2023/08/05 11:45:19;;;;;;;3.75;1.80;;;13.60;99.90;;;;;;4824535;29;20041;-55
2023/08/05 11:47:47;;;;;;;3.25;1.73;;;13.60;99.90;;;;;;4846485;29;20050;-56
2023/08/05 11:50:15;;;;;;;2.88;1.67;;;13.70;99.90;;;;;;4851241;29;20053;-56
2023/08/05 11:52:42;;;;;;;6.10;2.08;;;13.90;99.90;;;;;;4841731;29;20064;-56
2023/08/05 11:55:10;;;;;;;5.50;1.90;;;13.90;99.90;;;;;;4856893;29;20048;-56
2023/08/05 11:57:38;;;;;;;3.50;2.05;;;13.90;99.90;;;;;;4830179;29;20069;-55
2023/08/05 12:00:08;;;;;;;1.95;1.30;;;14.00;99.90;;;;;;4858535;29;20069;-56
2023/08/05 12:02:37;;;;;;;3.25;1.90;;;14.20;99.90;;;;;;4852494;29;20202;-55
2023/08/05 12:05:06;;;;;;;3.05;1.98;;;14.20;99.90;;;;;;4841373;29;20060;-57
2023/08/05 12:07:41;;;;;;;4.00;1.98;;;14.20;99.90;;;;;;4854675;29;20058;-55
2023/08/05 12:10:14;;;;;;;2.88;1.85;;;14.30;99.90;;;;;;4841586;29;20049;-55
2023/08/05 12:12:44;;;;;;;4.00;2.00;;;14.50;99.90;;;;;;4844516;29;20057;-55
2023/08/05 12:15:13;;;;;;;2.75;1.77;;;14.50;99.90;;;;;;4835806;29;20050;-55
2023/08/05 12:17:49;;;;;;;3.13;2.17;;;14.60;99.90;;;;;;4853023;29;20368;-55
2023/08/05 12:20:25;;;;;;;4.18;2.28;;;14.80;99.90;;;;;;4857611;29;20057;-55
2023/08/05 12:22:55;;;;;;;3.38;2.03;;;14.90;99.90;;;;;;4855956;29;20516;-56
2023/08/05 12:25:26;;;;;;;4.60;2.05;;;15.00;99.90;;;;;;4858145;29;20422;-56
2023/08/05 12:27:54;;;;;;;3.60;2.20;;;15.10;99.90;;;;;;4822156;29;20482;-55
2023/08/05 12:30:23;;;;;;;4.35;1.95;;;;;;;;;;4839111;29;20167;-55
2023/08/05 12:32:51;;;;;;;3.05;2.13;;;15.20;99.90;;;;;;4855366;29;20064;-55
2023/08/05 12:35:18;;;;;;;4.55;1.90;;;15.20;99.90;;;;;;4836110;29;20486;-55
2023/08/05 12:37:46;;;;;;;4.28;2.10;;;15.40;99.90;;;;;;4854232;29;20053;-55
2023/08/05 12:40:14;;;;;;;2.95;2.05;;;15.40;99.90;;;;;;4857650;29;20049;-55
2023/08/05 12:42:42;;;;;;;3.67;2.20;;;15.50;99.90;;;;;;4821031;29;20057;-55
2023/08/05 12:45:10;;;;;;;3.40;2.25;;;15.60;99.90;;;;;;4854387;29;20056;-56
2023/08/05 12:47:38;;;;;;;6.13;2.55;;;15.80;99.90;;;;;;4857850;29;20065;-54
2023/08/05 12:50:07;;;;;;;3.65;2.38;;;15.80;99.90;;;;;;4854993;29;20424;-55